Terminal Aerodrome Forecast
Issued by NWS

Current Version | Previous Version | Text Only | Print | Product List | Glossary On
Versions: 1 2 3 4 5 6 7 8 9 10 11 12 13
000
FTUS42 KGSP 232320
TAFGMU
TAF
KGMU 232320Z 2400/2424 22009KT P6SM VCSH BKN050
     FM240200 22006KT P6SM SCT070 BKN250
     FM241600 24007KT P6SM SCT050 BKN250 PROB30 2417/2423 4SM -TSRA
      BKN040CB=

USA.gov is the U.S. government's official web portal to all federal, state and local government web resources and services.